sensor_id;sensor_type;location;lat;lon;timestamp;pressure;altitude;pressure_sealevel;temperature;humidity
55191;BME280;41070;50.360;18.742;2023-09-30T00:00:51;99007.34;;;15.93;76.05
55191;BME280;41070;50.360;18.742;2023-09-30T00:03:30;99003.63;;;15.93;76.15
55191;BME280;41070;50.360;18.742;2023-09-30T00:05:57;99004.55;;;15.93;76.19
55191;BME280;41070;50.360;18.742;2023-09-30T00:08:24;99002.71;;;15.93;76.06
55191;BME280;41070;50.360;18.742;2023-09-30T00:11:17;98998.72;;;15.94;76.08
55191;BME280;41070;50.360;18.742;2023-09-30T00:13:44;98997.35;;;15.96;76.13
55191;BME280;41070;50.360;18.742;2023-09-30T00:16:11;98996.08;;;15.99;76.13
55191;BME280;41070;50.360;18.742;2023-09-30T00:19:01;98997.98;;;16.04;76.00
55191;BME280;41070;50.360;18.742;2023-09-30T00:21:29;98995.33;;;16.09;75.91
55191;BME280;41070;50.360;18.742;2023-09-30T00:23:56;98992.14;;;16.13;75.87
55191;BME280;41070;50.360;18.742;2023-09-30T00:26:22;98992.36;;;16.19;75.67
55191;BME280;41070;50.360;18.742;2023-09-30T00:28:48;98992.40;;;16.23;75.73
55191;BME280;41070;50.360;18.742;2023-09-30T00:31:15;98993.80;;;16.24;75.32
55191;BME280;41070;50.360;18.742;2023-09-30T00:33:41;98988.81;;;16.27;75.28
55191;BME280;41070;50.360;18.742;2023-09-30T00:36:09;98984.27;;;16.28;75.30
55191;BME280;41070;50.360;18.742;2023-09-30T00:38:37;98980.11;;;16.29;75.37
55191;BME280;41070;50.360;18.742;2023-09-30T00:41:04;98978.69;;;16.25;75.16
55191;BME280;41070;50.360;18.742;2023-09-30T00:43:42;98980.59;;;16.23;75.05
55191;BME280;41070;50.360;18.742;2023-09-30T00:46:38;98980.80;;;16.21;75.41
55191;BME280;41070;50.360;18.742;2023-09-30T00:49:52;98977.13;;;16.16;75.48
55191;BME280;41070;50.360;18.742;2023-09-30T00:52:31;98977.01;;;16.11;75.51
55191;BME280;41070;50.360;18.742;2023-09-30T00:54:59;98976.59;;;16.08;75.44
55191;BME280;41070;50.360;18.742;2023-09-30T01:01:19;98973.20;;;16.09;75.66
55191;BME280;41070;50.360;18.742;2023-09-30T01:03:49;98971.53;;;16.12;75.69
55191;BME280;41070;50.360;18.742;2023-09-30T01:06:15;98971.17;;;16.15;75.60
55191;BME280;41070;50.360;18.742;2023-09-30T01:08:41;98972.23;;;16.20;75.80
55191;BME280;41070;50.360;18.742;2023-09-30T01:35:42;98986.50;;;16.35;75.38
55191;BME280;41070;50.360;18.742;2023-09-30T01:38:08;98984.56;;;16.34;75.68
55191;BME280;41070;50.360;18.742;2023-09-30T01:40:34;98985.25;;;16.33;76.13
55191;BME280;41070;50.360;18.742;2023-09-30T01:43:01;98984.48;;;16.32;76.49
55191;BME280;41070;50.360;18.742;2023-09-30T01:45:29;98979.73;;;16.29;76.74
55191;BME280;41070;50.360;18.742;2023-09-30T01:47:55;98982.73;;;16.28;77.19
55191;BME280;41070;50.360;18.742;2023-09-30T01:50:22;98987.19;;;16.26;77.52
55191;BME280;41070;50.360;18.742;2023-09-30T01:52:48;98986.16;;;16.25;77.70
55191;BME280;41070;50.360;18.742;2023-09-30T01:55:14;98987.23;;;16.24;78.05
55191;BME280;41070;50.360;18.742;2023-09-30T01:57:41;98982.50;;;16.20;78.56
55191;BME280;41070;50.360;18.742;2023-09-30T02:00:08;98987.19;;;16.19;78.89
55191;BME280;41070;50.360;18.742;2023-09-30T02:05:43;98985.34;;;16.19;79.76
55191;BME280;41070;50.360;18.742;2023-09-30T02:08:10;98981.17;;;16.19;79.76
55191;BME280;41070;50.360;18.742;2023-09-30T02:22:11;98993.95;;;15.96;81.38
55191;BME280;41070;50.360;18.742;2023-09-30T02:24:41;98991.45;;;15.93;81.57
55191;BME280;41070;50.360;18.742;2023-09-30T02:27:20;98990.89;;;15.90;81.81
55191;BME280;41070;50.360;18.742;2023-09-30T02:29:47;98995.18;;;15.88;82.31
55191;BME280;41070;50.360;18.742;2023-09-30T02:32:14;98996.80;;;15.88;82.64
55191;BME280;41070;50.360;18.742;2023-09-30T02:34:43;98994.86;;;15.87;82.82
55191;BME280;41070;50.360;18.742;2023-09-30T02:37:10;98991.45;;;15.86;83.36
55191;BME280;41070;50.360;18.742;2023-09-30T02:39:37;98993.46;;;15.87;83.72
55191;BME280;41070;50.360;18.742;2023-09-30T02:42:26;98991.13;;;15.85;84.38
55191;BME280;41070;50.360;18.742;2023-09-30T02:44:53;98991.52;;;15.86;84.12
55191;BME280;41070;50.360;18.742;2023-09-30T02:47:19;98998.55;;;15.87;84.29
55191;BME280;41070;50.360;18.742;2023-09-30T02:49:52;98999.27;;;15.82;84.62
55191;BME280;41070;50.360;18.742;2023-09-30T02:52:18;98990.41;;;15.76;85.15
55191;BME280;41070;50.360;18.742;2023-09-30T02:54:48;98990.94;;;15.75;85.31
55191;BME280;41070;50.360;18.742;2023-09-30T02:57:15;98987.75;;;15.73;85.74
55191;BME280;41070;50.360;18.742;2023-09-30T02:59:58;98988.36;;;15.73;85.72
55191;BME280;41070;50.360;18.742;2023-09-30T03:02:26;98987.38;;;15.70;86.10
55191;BME280;41070;50.360;18.742;2023-09-30T03:04:52;98990.05;;;15.68;86.40
55191;BME280;41070;50.360;18.742;2023-09-30T03:11:15;98987.98;;;15.74;86.15
55191;BME280;41070;50.360;18.742;2023-09-30T03:13:52;98989.92;;;15.64;86.29
55191;BME280;41070;50.360;18.742;2023-09-30T03:23:53;98983.52;;;15.52;87.52
55191;BME280;41070;50.360;18.742;2023-09-30T03:26:24;98984.29;;;15.51;87.91
55191;BME280;41070;50.360;18.742;2023-09-30T03:28:51;98981.60;;;15.52;88.29
55191;BME280;41070;50.360;18.742;2023-09-30T03:35:20;98988.74;;;15.56;88.88
55191;BME280;41070;50.360;18.742;2023-09-30T03:37:47;98990.17;;;15.66;88.97
55191;BME280;41070;50.360;18.742;2023-09-30T03:40:14;98989.75;;;15.73;88.93
55191;BME280;41070;50.360;18.742;2023-09-30T03:43:10;98992.50;;;15.77;88.86
55191;BME280;41070;50.360;18.742;2023-09-30T03:46:11;98990.93;;;15.82;88.69
55191;BME280;41070;50.360;18.742;2023-09-30T03:48:38;98996.42;;;15.83;88.89
55191;BME280;41070;50.360;18.742;2023-09-30T03:51:12;98995.67;;;15.84;88.99
55191;BME280;41070;50.360;18.742;2023-09-30T03:54:19;99000.41;;;15.88;88.91
55191;BME280;41070;50.360;18.742;2023-09-30T03:56:45;98995.45;;;15.84;88.84
55191;BME280;41070;50.360;18.742;2023-09-30T03:59:12;98996.66;;;15.84;88.90
55191;BME280;41070;50.360;18.742;2023-09-30T04:01:39;99000.14;;;15.84;89.29
55191;BME280;41070;50.360;18.742;2023-09-30T04:04:07;98995.34;;;15.82;89.09
55191;BME280;41070;50.360;18.742;2023-09-30T04:06:39;98996.02;;;15.81;89.13
55191;BME280;41070;50.360;18.742;2023-09-30T04:09:09;98994.19;;;15.84;89.28
55191;BME280;41070;50.360;18.742;2023-09-30T04:11:36;98994.49;;;15.83;89.11
55191;BME280;41070;50.360;18.742;2023-09-30T04:14:04;98992.27;;;15.83;89.34
55191;BME280;41070;50.360;18.742;2023-09-30T04:20:31;98995.30;;;15.86;89.39
55191;BME280;41070;50.360;18.742;2023-09-30T04:22:58;99000.23;;;15.86;89.18
55191;BME280;41070;50.360;18.742;2023-09-30T04:29:55;99003.44;;;15.88;88.82
55191;BME280;41070;50.360;18.742;2023-09-30T04:32:52;99008.74;;;15.89;88.94
55191;BME280;41070;50.360;18.742;2023-09-30T04:35:18;99014.45;;;15.94;88.93
55191;BME280;41070;50.360;18.742;2023-09-30T04:37:45;99017.21;;;15.94;88.86
55191;BME280;41070;50.360;18.742;2023-09-30T04:40:14;99024.52;;;15.93;88.72
55191;BME280;41070;50.360;18.742;2023-09-30T04:42:42;99019.73;;;15.92;88.81
55191;BME280;41070;50.360;18.742;2023-09-30T04:45:09;99018.17;;;15.90;88.75
55191;BME280;41070;50.360;18.742;2023-09-30T04:47:36;99021.34;;;15.90;88.82
55191;BME280;41070;50.360;18.742;2023-09-30T04:57:44;99042.09;;;15.81;89.07
55191;BME280;41070;50.360;18.742;2023-09-30T05:00:13;99041.31;;;15.79;89.00
55191;BME280;41070;50.360;18.742;2023-09-30T05:07:14;99039.33;;;15.87;89.96
55191;BME280;41070;50.360;18.742;2023-09-30T05:09:44;99040.83;;;15.89;90.05
55191;BME280;41070;50.360;18.742;2023-09-30T05:12:10;99039.00;;;15.92;90.18
55191;BME280;41070;50.360;18.742;2023-09-30T05:14:37;99041.35;;;15.94;90.14
55191;BME280;41070;50.360;18.742;2023-09-30T05:20:34;99052.21;;;16.00;90.45
55191;BME280;41070;50.360;18.742;2023-09-30T05:23:03;99052.30;;;16.01;90.45
55191;BME280;41070;50.360;18.742;2023-09-30T05:25:32;99061.34;;;16.03;90.64
55191;BME280;41070;50.360;18.742;2023-09-30T05:27:58;99069.02;;;16.06;90.74
55191;BME280;41070;50.360;18.742;2023-09-30T05:30:25;99072.40;;;16.05;90.57
55191;BME280;41070;50.360;18.742;2023-09-30T05:37:21;99086.84;;;16.13;90.90
55191;BME280;41070;50.360;18.742;2023-09-30T05:39:49;99094.78;;;16.20;91.11
55191;BME280;41070;50.360;18.742;2023-09-30T05:42:16;99100.20;;;16.21;91.00
55191;BME280;41070;50.360;18.742;2023-09-30T05:44:45;99104.02;;;16.23;91.00
55191;BME280;41070;50.360;18.742;2023-09-30T05:47:11;99105.73;;;16.26;91.06
55191;BME280;41070;50.360;18.742;2023-09-30T05:49:38;99109.45;;;16.27;90.80
55191;BME280;41070;50.360;18.742;2023-09-30T05:52:26;99109.42;;;16.30;91.12
55191;BME280;41070;50.360;18.742;2023-09-30T05:54:53;99109.88;;;16.36;91.27
55191;BME280;41070;50.360;18.742;2023-09-30T05:57:19;99112.05;;;16.38;91.16
55191;BME280;41070;50.360;18.742;2023-09-30T05:59:58;99117.70;;;16.40;90.99
55191;BME280;41070;50.360;18.742;2023-09-30T06:02:24;99122.27;;;16.41;91.03
55191;BME280;41070;50.360;18.742;2023-09-30T06:04:51;99125.48;;;16.43;91.05
55191;BME280;41070;50.360;18.742;2023-09-30T06:07:28;99121.98;;;16.41;91.09
55191;BME280;41070;50.360;18.742;2023-09-30T06:09:54;99123.39;;;16.42;91.27
55191;BME280;41070;50.360;18.742;2023-09-30T06:12:21;99123.05;;;16.42;91.22
55191;BME280;41070;50.360;18.742;2023-09-30T06:14:48;99126.99;;;16.42;91.34
55191;BME280;41070;50.360;18.742;2023-09-30T06:17:24;99128.89;;;16.46;91.69
55191;BME280;41070;50.360;18.742;2023-09-30T06:19:53;99131.15;;;16.48;91.53
55191;BME280;41070;50.360;18.742;2023-09-30T06:22:21;99134.08;;;16.54;92.01
55191;BME280;41070;50.360;18.742;2023-09-30T06:24:50;99133.03;;;16.58;91.75
55191;BME280;41070;50.360;18.742;2023-09-30T06:27:22;99137.21;;;16.59;91.51
55191;BME280;41070;50.360;18.742;2023-09-30T06:29:49;99139.14;;;16.58;91.23
55191;BME280;41070;50.360;18.742;2023-09-30T06:32:15;99140.19;;;16.55;91.32
55191;BME280;41070;50.360;18.742;2023-09-30T06:34:51;99143.51;;;16.55;91.54
55191;BME280;41070;50.360;18.742;2023-09-30T06:37:18;99149.20;;;16.62;92.01
55191;BME280;41070;50.360;18.742;2023-09-30T06:39:46;99151.80;;;16.66;92.04
55191;BME280;41070;50.360;18.742;2023-09-30T06:42:14;99154.67;;;16.67;91.94
55191;BME280;41070;50.360;18.742;2023-09-30T06:44:40;99155.45;;;16.68;92.15
55191;BME280;41070;50.360;18.742;2023-09-30T06:47:06;99160.44;;;16.66;92.39
55191;BME280;41070;50.360;18.742;2023-09-30T06:50:10;99157.89;;;16.65;92.23
55191;BME280;41070;50.360;18.742;2023-09-30T06:52:40;99157.48;;;16.70;92.64
55191;BME280;41070;50.360;18.742;2023-09-30T06:55:07;99154.27;;;16.72;92.58
55191;BME280;41070;50.360;18.742;2023-09-30T06:57:35;99159.96;;;16.70;92.69
55191;BME280;41070;50.360;18.742;2023-09-30T07:00:06;99159.86;;;16.68;92.87
55191;BME280;41070;50.360;18.742;2023-09-30T07:02:53;99161.59;;;16.71;92.97
55191;BME280;41070;50.360;18.742;2023-09-30T07:05:23;99163.46;;;16.67;93.01
55191;BME280;41070;50.360;18.742;2023-09-30T07:07:49;99168.92;;;16.64;93.39
55191;BME280;41070;50.360;18.742;2023-09-30T07:10:16;99169.53;;;16.64;93.58
55191;BME280;41070;50.360;18.742;2023-09-30T07:12:43;99169.64;;;16.66;93.69
55191;BME280;41070;50.360;18.742;2023-09-30T07:15:10;99171.05;;;16.69;94.01
55191;BME280;41070;50.360;18.742;2023-09-30T07:17:38;99175.77;;;16.71;94.38
55191;BME280;41070;50.360;18.742;2023-09-30T07:20:06;99177.73;;;16.73;94.21
55191;BME280;41070;50.360;18.742;2023-09-30T07:22:33;99179.17;;;16.76;94.39
55191;BME280;41070;50.360;18.742;2023-09-30T07:25:00;99188.30;;;16.79;94.87
55191;BME280;41070;50.360;18.742;2023-09-30T07:27:26;99187.74;;;16.82;94.94
55191;BME280;41070;50.360;18.742;2023-09-30T07:29:53;99191.34;;;16.84;95.04
55191;BME280;41070;50.360;18.742;2023-09-30T07:32:45;99190.70;;;16.91;95.52
55191;BME280;41070;50.360;18.742;2023-09-30T07:35:12;99195.48;;;16.96;95.80
55191;BME280;41070;50.360;18.742;2023-09-30T07:37:50;99196.69;;;17.02;95.67
55191;BME280;41070;50.360;18.742;2023-09-30T07:40:22;99194.67;;;17.09;95.94
55191;BME280;41070;50.360;18.742;2023-09-30T07:42:48;99194.17;;;17.13;95.77
55191;BME280;41070;50.360;18.742;2023-09-30T07:45:15;99195.86;;;17.21;95.97
55191;BME280;41070;50.360;18.742;2023-09-30T07:47:45;99195.80;;;17.29;96.16
55191;BME280;41070;50.360;18.742;2023-09-30T07:50:12;99197.62;;;17.35;96.38
55191;BME280;41070;50.360;18.742;2023-09-30T07:52:41;99203.59;;;17.45;96.13
55191;BME280;41070;50.360;18.742;2023-09-30T07:55:09;99205.19;;;17.51;96.27
55191;BME280;41070;50.360;18.742;2023-09-30T07:57:36;99208.00;;;17.55;96.22
55191;BME280;41070;50.360;18.742;2023-09-30T08:00:03;99208.70;;;17.56;96.28
55191;BME280;41070;50.360;18.742;2023-09-30T08:02:33;99218.90;;;17.55;96.35
55191;BME280;41070;50.360;18.742;2023-09-30T08:04:59;99221.32;;;17.48;96.59
55191;BME280;41070;50.360;18.742;2023-09-30T08:07:26;99219.42;;;17.44;96.46
55191;BME280;41070;50.360;18.742;2023-09-30T08:09:56;99225.25;;;17.39;96.60
55191;BME280;41070;50.360;18.742;2023-09-30T08:12:23;99229.55;;;17.36;96.86
55191;BME280;41070;50.360;18.742;2023-09-30T08:14:49;99230.90;;;17.32;96.97
55191;BME280;41070;50.360;18.742;2023-09-30T08:17:17;99230.71;;;17.29;97.10
55191;BME280;41070;50.360;18.742;2023-09-30T08:19:55;99228.67;;;17.25;97.39
55191;BME280;41070;50.360;18.742;2023-09-30T08:22:21;99231.68;;;17.25;97.86
55191;BME280;41070;50.360;18.742;2023-09-30T08:24:56;99229.13;;;17.26;97.92
55191;BME280;41070;50.360;18.742;2023-09-30T08:27:26;99226.20;;;17.25;98.27
55191;BME280;41070;50.360;18.742;2023-09-30T08:29:53;99225.52;;;17.27;98.56
55191;BME280;41070;50.360;18.742;2023-09-30T08:32:19;99222.71;;;17.32;98.65
55191;BME280;41070;50.360;18.742;2023-09-30T08:34:45;99222.02;;;17.40;98.95
55191;BME280;41070;50.360;18.742;2023-09-30T08:37:29;99228.11;;;17.47;98.65
55191;BME280;41070;50.360;18.742;2023-09-30T08:39:57;99227.40;;;17.46;98.92
55191;BME280;41070;50.360;18.742;2023-09-30T08:46:34;99232.03;;;17.37;99.24
55191;BME280;41070;50.360;18.742;2023-09-30T08:49:18;99230.29;;;17.32;99.31
55191;BME280;41070;50.360;18.742;2023-09-30T08:51:48;99232.38;;;17.32;99.65
55191;BME280;41070;50.360;18.742;2023-09-30T08:54:15;99236.56;;;17.34;99.50
55191;BME280;41070;50.360;18.742;2023-09-30T08:56:44;99231.60;;;17.33;99.69
55191;BME280;41070;50.360;18.742;2023-09-30T08:59:13;99234.71;;;17.33;99.83
55191;BME280;41070;50.360;18.742;2023-09-30T09:01:52;99240.92;;;17.29;99.83
55191;BME280;41070;50.360;18.742;2023-09-30T09:04:19;99241.75;;;17.26;99.86
55191;BME280;41070;50.360;18.742;2023-09-30T09:06:45;99241.40;;;17.24;99.85
55191;BME280;41070;50.360;18.742;2023-09-30T09:09:15;99246.45;;;17.18;100.00
55191;BME280;41070;50.360;18.742;2023-09-30T09:11:46;99248.56;;;17.14;100.00
55191;BME280;41070;50.360;18.742;2023-09-30T09:18:04;99255.38;;;17.08;100.00
55191;BME280;41070;50.360;18.742;2023-09-30T09:20:31;99253.86;;;17.04;100.00
55191;BME280;41070;50.360;18.742;2023-09-30T09:22:57;99253.05;;;17.01;100.00
55191;BME280;41070;50.360;18.742;2023-09-30T09:25:26;99251.79;;;16.98;100.00
55191;BME280;41070;50.360;18.742;2023-09-30T09:28:15;99257.29;;;16.99;100.00
55191;BME280;41070;50.360;18.742;2023-09-30T09:30:42;99252.91;;;17.01;100.00
55191;BME280;41070;50.360;18.742;2023-09-30T09:33:09;99255.98;;;17.00;100.00
55191;BME280;41070;50.360;18.742;2023-09-30T09:35:35;99248.11;;;17.00;100.00
55191;BME280;41070;50.360;18.742;2023-09-30T09:38:06;99249.55;;;16.99;100.00
55191;BME280;41070;50.360;18.742;2023-09-30T09:40:34;99247.50;;;16.94;100.00
55191;BME280;41070;50.360;18.742;2023-09-30T09:46:49;99251.42;;;16.93;100.00
55191;BME280;41070;50.360;18.742;2023-09-30T09:49:17;99250.43;;;16.94;100.00
55191;BME280;41070;50.360;18.742;2023-09-30T09:51:45;99253.17;;;16.97;100.00
55191;BME280;41070;50.360;18.742;2023-09-30T09:54:12;99260.42;;;16.97;100.00
55191;BME280;41070;50.360;18.742;2023-09-30T09:56:39;99262.27;;;16.96;100.00
55191;BME280;41070;50.360;18.742;2023-09-30T09:59:05;99264.84;;;16.98;100.00
55191;BME280;41070;50.360;18.742;2023-09-30T10:01:35;99266.79;;;17.00;100.00
55191;BME280;41070;50.360;18.742;2023-09-30T10:04:02;99273.02;;;16.98;100.00
55191;BME280;41070;50.360;18.742;2023-09-30T10:06:28;99269.67;;;16.96;100.00
55191;BME280;41070;50.360;18.742;2023-09-30T10:08:56;99274.34;;;16.97;100.00
55191;BME280;41070;50.360;18.742;2023-09-30T10:11:24;99270.55;;;16.98;100.00
55191;BME280;41070;50.360;18.742;2023-09-30T10:13:55;99274.73;;;16.99;100.00
55191;BME280;41070;50.360;18.742;2023-09-30T10:19:25;99275.38;;;16.93;100.00
55191;BME280;41070;50.360;18.742;2023-09-30T10:24:46;99281.92;;;16.77;100.00
55191;BME280;41070;50.360;18.742;2023-09-30T10:29:54;99289.30;;;16.62;100.00
55191;BME280;41070;50.360;18.742;2023-09-30T10:32:23;99291.99;;;16.56;100.00
55191;BME280;41070;50.360;18.742;2023-09-30T10:34:49;99298.10;;;16.50;100.00
55191;BME280;41070;50.360;18.742;2023-09-30T10:37:24;99298.08;;;16.44;100.00
55191;BME280;41070;50.360;18.742;2023-09-30T10:39:56;99300.01;;;16.39;100.00
55191;BME280;41070;50.360;18.742;2023-09-30T10:42:48;99305.20;;;16.34;100.00
55191;BME280;41070;50.360;18.742;2023-09-30T10:51:00;99317.92;;;16.00;100.00
55191;BME280;41070;50.360;18.742;2023-09-30T10:53:28;99322.67;;;15.89;100.00
55191;BME280;41070;50.360;18.742;2023-09-30T10:55:58;99327.11;;;15.82;100.00
55191;BME280;41070;50.360;18.742;2023-09-30T10:58:41;99331.09;;;15.72;100.00
55191;BME280;41070;50.360;18.742;2023-09-30T11:01:08;99329.01;;;15.65;100.00
55191;BME280;41070;50.360;18.742;2023-09-30T11:03:35;99335.27;;;15.58;100.00
55191;BME280;41070;50.360;18.742;2023-09-30T11:06:16;99341.50;;;15.48;100.00
55191;BME280;41070;50.360;18.742;2023-09-30T11:09:03;99342.52;;;15.41;100.00
55191;BME280;41070;50.360;18.742;2023-09-30T11:11:45;99344.41;;;15.35;100.00
55191;BME280;41070;50.360;18.742;2023-09-30T11:16:49;99343.14;;;15.30;100.00
55191;BME280;41070;50.360;18.742;2023-09-30T11:19:18;99340.71;;;15.27;100.00
55191;BME280;41070;50.360;18.742;2023-09-30T11:21:49;99335.77;;;15.27;100.00
55191;BME280;41070;50.360;18.742;2023-09-30T11:24:16;99328.95;;;15.32;100.00
55191;BME280;41070;50.360;18.742;2023-09-30T11:26:44;99332.81;;;15.37;100.00
55191;BME280;41070;50.360;18.742;2023-09-30T11:29:23;99333.64;;;15.39;100.00
55191;BME280;41070;50.360;18.742;2023-09-30T11:31:51;99338.79;;;15.44;100.00
55191;BME280;41070;50.360;18.742;2023-09-30T11:34:18;99340.06;;;15.49;100.00
55191;BME280;41070;50.360;18.742;2023-09-30T11:36:49;99338.34;;;15.52;100.00
55191;BME280;41070;50.360;18.742;2023-09-30T11:39:23;99346.52;;;15.61;100.00
55191;BME280;41070;50.360;18.742;2023-09-30T11:41:51;99349.17;;;15.68;100.00
55191;BME280;41070;50.360;18.742;2023-09-30T11:44:56;99352.12;;;15.68;100.00
55191;BME280;41070;50.360;18.742;2023-09-30T11:47:30;99349.52;;;15.69;100.00
55191;BME280;41070;50.360;18.742;2023-09-30T11:49:56;99347.53;;;15.74;100.00
55191;BME280;41070;50.360;18.742;2023-09-30T11:52:26;99348.55;;;15.75;100.00
55191;BME280;41070;50.360;18.742;2023-09-30T11:55:13;99346.36;;;15.84;100.00
55191;BME280;41070;50.360;18.742;2023-09-30T11:57:39;99346.13;;;15.90;100.00
55191;BME280;41070;50.360;18.742;2023-09-30T12:00:07;99340.71;;;15.93;100.00
55191;BME280;41070;50.360;18.742;2023-09-30T12:02:40;99337.79;;;15.98;100.00
55191;BME280;41070;50.360;18.742;2023-09-30T12:05:09;99331.00;;;16.03;100.00
55191;BME280;41070;50.360;18.742;2023-09-30T12:07:49;99328.48;;;16.03;100.00
55191;BME280;41070;50.360;18.742;2023-09-30T12:10:16;99326.63;;;16.00;100.00
55191;BME280;41070;50.360;18.742;2023-09-30T12:12:42;99327.51;;;15.96;100.00
55191;BME280;41070;50.360;18.742;2023-09-30T12:15:10;99331.73;;;15.95;100.00
55191;BME280;41070;50.360;18.742;2023-09-30T12:17:37;99337.59;;;15.91;100.00
55191;BME280;41070;50.360;18.742;2023-09-30T12:20:06;99347.83;;;15.86;100.00
55191;BME280;41070;50.360;18.742;2023-09-30T12:22:37;99342.19;;;15.76;100.00
55191;BME280;41070;50.360;18.742;2023-09-30T12:25:06;99346.98;;;15.70;100.00
55191;BME280;41070;50.360;18.742;2023-09-30T12:27:59;99351.58;;;15.68;100.00
55191;BME280;41070;50.360;18.742;2023-09-30T12:30:42;99356.05;;;15.69;100.00
55191;BME280;41070;50.360;18.742;2023-09-30T12:33:13;99352.91;;;15.76;100.00
55191;BME280;41070;50.360;18.742;2023-09-30T12:35:40;99353.02;;;15.87;100.00
55191;BME280;41070;50.360;18.742;2023-09-30T12:38:08;99354.02;;;15.96;100.00
55191;BME280;41070;50.360;18.742;2023-09-30T12:40:55;99349.60;;;16.04;99.90
55191;BME280;41070;50.360;18.742;2023-09-30T12:43:22;99352.08;;;16.09;99.94
55191;BME280;41070;50.360;18.742;2023-09-30T12:45:49;99356.17;;;16.14;99.94
55191;BME280;41070;50.360;18.742;2023-09-30T12:48:19;99358.01;;;16.22;99.94
55191;BME280;41070;50.360;18.742;2023-09-30T12:50:52;99356.73;;;16.30;99.65
55191;BME280;41070;50.360;18.742;2023-09-30T12:53:50;99360.41;;;16.42;99.54
55191;BME280;41070;50.360;18.742;2023-09-30T12:56:18;99357.38;;;16.56;99.09
55191;BME280;41070;50.360;18.742;2023-09-30T12:59:04;99354.95;;;16.66;98.48
55191;BME280;41070;50.360;18.742;2023-09-30T13:01:52;99353.31;;;16.75;97.92
55191;BME280;41070;50.360;18.742;2023-09-30T13:04:18;99353.88;;;16.86;97.40
55191;BME280;41070;50.360;18.742;2023-09-30T13:06:53;99354.70;;;16.89;95.96
55191;BME280;41070;50.360;18.742;2023-09-30T13:12:42;99354.84;;;16.74;93.72
55191;BME280;41070;50.360;18.742;2023-09-30T13:15:08;99353.49;;;16.71;93.23
55191;BME280;41070;50.360;18.742;2023-09-30T13:17:40;99352.58;;;16.72;92.95
55191;BME280;41070;50.360;18.742;2023-09-30T13:20:26;99350.33;;;16.81;93.18
55191;BME280;41070;50.360;18.742;2023-09-30T13:23:34;99353.98;;;16.87;92.15
55191;BME280;41070;50.360;18.742;2023-09-30T13:27:04;99347.34;;;16.93;91.81
55191;BME280;41070;50.360;18.742;2023-09-30T13:30:01;99351.20;;;17.05;92.19
55191;BME280;41070;50.360;18.742;2023-09-30T13:32:49;99353.65;;;17.22;91.28
55191;BME280;41070;50.360;18.742;2023-09-30T13:35:16;99349.21;;;17.33;91.19
55191;BME280;41070;50.360;18.742;2023-09-30T13:37:45;99354.16;;;17.47;89.48
55191;BME280;41070;50.360;18.742;2023-09-30T13:40:12;99350.08;;;17.54;87.02
55191;BME280;41070;50.360;18.742;2023-09-30T13:42:40;99348.14;;;17.63;86.19
55191;BME280;41070;50.360;18.742;2023-09-30T13:45:30;99353.05;;;17.67;82.79
55191;BME280;41070;50.360;18.742;2023-09-30T13:48:10;99356.86;;;17.69;82.67
55191;BME280;41070;50.360;18.742;2023-09-30T13:51:06;99354.27;;;17.74;81.97
55191;BME280;41070;50.360;18.742;2023-09-30T13:54:45;99358.45;;;17.87;80.32
55191;BME280;41070;50.360;18.742;2023-09-30T13:57:13;99357.33;;;17.89;78.41
55191;BME280;41070;50.360;18.742;2023-09-30T14:03:07;99356.56;;;17.90;77.73
55191;BME280;41070;50.360;18.742;2023-09-30T14:05:47;99359.30;;;17.87;76.88
55191;BME280;41070;50.360;18.742;2023-09-30T14:08:14;99356.73;;;17.77;75.26
55191;BME280;41070;50.360;18.742;2023-09-30T14:10:45;99359.27;;;17.69;75.26
55191;BME280;41070;50.360;18.742;2023-09-30T14:13:14;99367.38;;;17.61;75.22
55191;BME280;41070;50.360;18.742;2023-09-30T14:15:45;99372.00;;;17.46;73.52
55191;BME280;41070;50.360;18.742;2023-09-30T14:18:26;99375.57;;;17.33;73.74
55191;BME280;41070;50.360;18.742;2023-09-30T14:21:13;99381.66;;;17.26;72.92
55191;BME280;41070;50.360;18.742;2023-09-30T14:23:59;99375.91;;;17.23;73.57
55191;BME280;41070;50.360;18.742;2023-09-30T14:26:28;99377.84;;;17.24;74.16
55191;BME280;41070;50.360;18.742;2023-09-30T14:29:01;99376.48;;;17.26;74.07
55191;BME280;41070;50.360;18.742;2023-09-30T14:31:30;99382.91;;;17.27;73.58
55191;BME280;41070;50.360;18.742;2023-09-30T14:33:57;99375.41;;;17.27;72.86
55191;BME280;41070;50.360;18.742;2023-09-30T14:36:32;99372.55;;;17.27;72.66
55191;BME280;41070;50.360;18.742;2023-09-30T14:38:59;99370.50;;;17.23;72.73
55191;BME280;41070;50.360;18.742;2023-09-30T14:41:25;99366.33;;;17.23;73.65
55191;BME280;41070;50.360;18.742;2023-09-30T14:43:52;99372.55;;;17.22;73.04
55191;BME280;41070;50.360;18.742;2023-09-30T14:46:19;99373.92;;;17.19;73.56
55191;BME280;41070;50.360;18.742;2023-09-30T14:48:49;99376.33;;;17.13;73.15
55191;BME280;41070;50.360;18.742;2023-09-30T14:51:25;99377.67;;;17.09;73.49
55191;BME280;41070;50.360;18.742;2023-09-30T14:53:54;99377.85;;;17.06;73.60
55191;BME280;41070;50.360;18.742;2023-09-30T14:56:22;99376.05;;;17.04;74.09
55191;BME280;41070;50.360;18.742;2023-09-30T14:58:57;99377.59;;;17.04;74.51
55191;BME280;41070;50.360;18.742;2023-09-30T15:01:24;99377.36;;;17.04;74.68
55191;BME280;41070;50.360;18.742;2023-09-30T15:03:52;99379.04;;;17.02;74.91
55191;BME280;41070;50.360;18.742;2023-09-30T15:06:19;99381.54;;;17.03;75.10
55191;BME280;41070;50.360;18.742;2023-09-30T15:08:59;99383.83;;;17.02;75.01
55191;BME280;41070;50.360;18.742;2023-09-30T15:11:37;99383.82;;;17.01;75.00
55191;BME280;41070;50.360;18.742;2023-09-30T15:14:05;99383.31;;;17.04;75.15